Time;durP1;ratioP1;P1;durP2;ratioP2;P2;SDS_P1;SDS_P2;PMS_P1;PMS_P2;Temp;Humidity;BMP_temperature;BMP_pressure;BME280_temperature;BME280_humidity;BME280_pressure;Samples;Min_cycle;Max_cycle;Signal;HPM_P1;HPM_P2
2021/08/28 00:01:12;;;;;;;;;;;;;;;13.82;100.00;100167.94;5074448;28;20386;-73
2021/08/28 00:03:39;;;;;;;;;;;;;;;13.99;100.00;100162.13;5074457;28;19924;-74
2021/08/28 00:06:08;;;;;;;;;;;;;;;13.54;100.00;100176.69;5034715;28;19928;-74
2021/08/28 00:08:35;;;;;;;;;;;;;;;13.80;100.00;100171.19;5094404;28;20015;-73
2021/08/28 00:11:02;;;;;;;;;;;;;;;13.86;100.00;100168.69;5094804;28;19924;-73
2021/08/28 00:13:29;;;;;;;;;;;;;;;13.86;100.00;100174.31;5094372;28;20052;-73
2021/08/28 00:15:57;;;;;;;;;;;;;;;14.04;100.00;100169.31;5076773;28;20294;-74
2021/08/28 00:18:24;;;;;;;;;;;;;;;13.79;100.00;100180.03;5076484;28;19931;-73
2021/08/28 00:20:51;;;;;;;;;;;;;;;13.79;100.00;100175.22;5076882;28;19931;-73
2021/08/28 00:23:18;;;;;;;;;;;;;;;13.86;100.00;100179.94;5059942;28;19924;-73
2021/08/28 00:25:45;;;;;;;;;;;;;;;13.75;100.00;100179.28;5076718;28;19928;-73
2021/08/28 00:28:12;;;;;;;;;;;;;;;13.73;100.00;100181.69;5093953;28;20413;-73
2021/08/28 00:30:53;;;;;;;;;;;;;;;13.67;100.00;100177.75;5078108;28;20372;-74
2021/08/28 00:33:20;;;;;;;;;;;;;;;13.74;100.00;100174.84;5093981;28;20309;-74
2021/08/28 00:35:47;;;;;;;;;;;;;;;13.74;100.00;100172.06;5056682;28;20410;-74
2021/08/28 00:38:13;;;;;;;;;;;;;;;13.80;100.00;100167.56;5073669;28;19924;-73
2021/08/28 00:40:40;;;;;;;;;;;;;;;13.74;100.00;100177.66;5055884;28;19971;-73
2021/08/28 00:43:09;;;;;;;;;;;;;;;13.93;100.00;100175.03;5055487;28;20387;-73
2021/08/28 00:45:36;;;;;;;;;;;;;;;13.93;100.00;100168.63;5039774;28;19987;-74
2021/08/28 00:48:08;;;;;;;;;;;;;;;13.77;100.00;100169.22;5094045;28;19924;-74
2021/08/28 00:50:36;;;;;;;;;;;;;;;13.89;100.00;100167.84;5059648;28;20275;-74
2021/08/28 00:53:07;;;;;;;;;;;;;;;13.82;100.00;100165.16;5055695;28;20417;-74
2021/08/28 00:55:35;;;;;;;;;;;;;;;13.82;100.00;100162.34;5050841;28;20345;-74
2021/08/28 00:58:02;;;;;;;;;;;;;;;13.82;100.00;100159.53;5075706;28;20291;-74
2021/08/28 01:00:50;;;;;;;;;;;;;;;13.98;100.00;100159.75;5076160;28;19924;-74
2021/08/28 01:03:23;;;;;;;;;;;;;;;13.92;100.00;100167.81;5074790;28;20011;-74
2021/08/28 01:06:10;;;;;;;;;;;;;;;13.81;100.00;100166.38;5076082;28;19975;-73
2021/08/28 01:09:01;;;;;;;;;;;;;;;13.83;100.00;100167.53;5083467;28;19932;-73
2021/08/28 01:12:11;;;;;;;;;;;;;;;13.87;100.00;100164.69;5066059;28;20000;-74
2021/08/28 01:14:51;;;;;;;;;;;;;;;14.07;100.00;100168.47;5025867;28;19929;-74
2021/08/28 01:17:20;;;;;;;;;;;;;;;14.15;100.00;100167.13;5058762;28;19928;-73
2021/08/28 01:20:04;;;;;;;;;;;;;;;14.14;100.00;100159.94;5058802;28;20418;-73
2021/08/28 01:22:50;;;;;;;;;;;;;;;14.38;100.00;100168.06;5093748;28;20552;-73
2021/08/28 01:25:51;;;;;;;;;;;;;;;14.17;100.00;100167.53;5062660;28;19924;-74
2021/08/28 01:28:23;;;;;;;;;;;;;;;14.17;100.00;100168.34;5058943;28;20426;-74
2021/08/28 01:30:51;;;;;;;;;;;;;;;14.37;100.00;100176.94;5075560;28;19924;-73
2021/08/28 01:33:20;;;;;;;;;;;;;;;14.14;100.00;100174.78;5079266;28;20409;-74
2021/08/28 01:35:50;;;;;;;;;;;;;;;14.01;100.00;100172.97;5075679;28;19932;-74
2021/08/28 01:38:26;;;;;;;;;;;;;;;13.92;100.00;100172.63;5075756;28;19924;-73
2021/08/28 01:41:00;;;;;;;;;;;;;;;13.82;100.00;100184.81;5058649;28;19974;-74
2021/08/28 01:43:29;;;;;;;;;;;;;;;14.06;100.00;100178.91;5058977;28;19924;-73
2021/08/28 01:45:59;;;;;;;;;;;;;;;14.12;100.00;100177.22;5075082;28;19932;-74
2021/08/28 01:48:26;;;;;;;;;;;;;;;13.81;100.00;100175.56;5054454;28;19932;-73
2021/08/28 01:50:53;;;;;;;;;;;;;;;13.72;100.00;100177.31;5069537;28;19924;-73
2021/08/28 01:53:27;;;;;;;;;;;;;;;13.68;100.00;100182.16;5059327;28;19970;-74
2021/08/28 01:55:54;;;;;;;;;;;;;;;13.90;100.00;100180.72;5057881;28;20298;-73
2021/08/28 01:58:22;;;;;;;;;;;;;;;14.29;100.00;100178.22;5075274;28;20427;-73
2021/08/28 02:00:58;;;;;;;;;;;;;;;14.14;100.00;100186.03;5075443;28;20343;-73
2021/08/28 02:03:39;;;;;;;;;;;;;;;14.28;100.00;100176.66;5075273;28;20375;-74
2021/08/28 02:06:09;;;;;;;;;;;;;;;14.27;100.00;100173.03;5074670;28;19924;-74
2021/08/28 02:08:45;;;;;;;;;;;;;;;14.16;100.00;100175.16;5058964;28;19924;-74
2021/08/28 02:11:14;;;;;;;;;;;;;;;13.92;100.00;100172.63;5058674;28;20015;-73
2021/08/28 02:13:47;;;;;;;;;;;;;;;13.95;100.00;100183.06;5093059;28;19989;-74
2021/08/28 02:16:17;;;;;;;;;;;;;;;14.08;100.00;100170.84;5058475;28;19928;-74
2021/08/28 02:18:57;;;;;;;;;;;;;;;14.12;100.00;100176.41;5074780;28;19967;-74
2021/08/28 02:21:40;;;;;;;;;;;;;;;14.59;100.00;100178.22;5074969;28;19924;-74
2021/08/28 02:24:16;;;;;;;;;;;;;;;14.78;100.00;100171.09;5074659;28;20305;-74
2021/08/28 02:26:49;;;;;;;;;;;;;;;14.32;100.00;100174.56;5075033;28;20360;-74
2021/08/28 02:29:18;;;;;;;;;;;;;;;14.85;100.00;100168.16;5057920;28;19963;-74
2021/08/28 02:31:47;;;;;;;;;;;;;;;15.06;100.00;100168.63;5043193;28;20350;-74
2021/08/28 02:34:17;;;;;;;;;;;;;;;15.16;100.00;100166.88;5078457;28;20313;-74
2021/08/28 02:36:47;;;;;;;;;;;;;;;15.20;100.00;100165.59;5067543;28;19924;-74
2021/08/28 02:39:16;;;;;;;;;;;;;;;15.16;100.00;100159.19;5058117;28;19930;-74
2021/08/28 02:41:46;;;;;;;;;;;;;;;14.75;100.00;100161.50;5058465;28;19925;-74
2021/08/28 02:44:14;;;;;;;;;;;;;;;14.90;100.00;100165.69;5043836;28;19924;-74
2021/08/28 02:46:42;;;;;;;;;;;;;;;14.86;100.00;100159.31;5078307;28;20397;-74
2021/08/28 02:49:14;;;;;;;;;;;;;;;14.63;100.00;100161.28;5078207;28;20367;-74
2021/08/28 02:51:43;;;;;;;;;;;;;;;15.12;100.00;100172.53;5078063;28;20023;-73
2021/08/28 02:54:12;;;;;;;;;;;;;;;15.29;100.00;100165.00;5077832;28;19924;-74
2021/08/28 02:56:40;;;;;;;;;;;;;;;15.23;100.00;100167.53;5077872;28;19928;-74
2021/08/28 02:59:09;;;;;;;;;;;;;;;15.09;100.00;100167.78;5077951;28;19928;-74
2021/08/28 03:01:37;;;;;;;;;;;;;;;15.20;100.00;100168.41;5061032;28;19928;-74
2021/08/28 03:04:04;;;;;;;;;;;;;;;15.10;100.00;100166.53;5078004;28;19928;-74
2021/08/28 03:06:32;;;;;;;;;;;;;;;14.92;100.00;100166.03;5077519;28;19935;-74
2021/08/28 03:09:00;;;;;;;;;;;;;;;14.62;100.00;100176.56;5077197;28;19972;-74
2021/08/28 03:11:28;;;;;;;;;;;;;;;14.98;100.00;100172.78;5077386;28;20072;-74
2021/08/28 03:13:55;;;;;;;;;;;;;;;15.25;100.00;100167.09;5077654;28;19945;-74
2021/08/28 03:16:26;;;;;;;;;;;;;;;15.22;100.00;100174.38;5077699;28;19930;-74
2021/08/28 03:18:56;;;;;;;;;;;;;;;15.34;100.00;100173.75;5077560;28;19924;-74
2021/08/28 03:21:32;;;;;;;;;;;;;;;15.16;100.00;100178.91;5067724;28;19931;-74
2021/08/28 03:24:13;;;;;;;;;;;;;;;15.17;100.00;100174.06;5069563;28;19924;-74
2021/08/28 03:26:47;;;;;;;;;;;;;;;15.43;100.00;100165.59;5049848;28;19936;-74
2021/08/28 03:29:19;;;;;;;;;;;;;;;15.56;100.00;100174.19;5059397;28;19924;-74
2021/08/28 03:31:50;;;;;;;;;;;;;;;15.75;100.00;100171.41;5071309;28;20024;-74
2021/08/28 03:34:17;;;;;;;;;;;;;;;15.75;100.00;100176.28;5068073;28;19925;-74
2021/08/28 03:36:45;;;;;;;;;;;;;;;15.64;100.00;100172.84;5077072;28;20291;-74
2021/08/28 03:39:13;;;;;;;;;;;;;;;15.60;100.00;100172.13;5060984;28;19928;-74
2021/08/28 03:41:40;;;;;;;;;;;;;;;15.86;100.00;100177.66;5060146;28;19930;-74
2021/08/28 03:44:14;;;;;;;;;;;;;;;15.70;100.00;100165.50;5077098;28;19928;-74
2021/08/28 03:46:43;;;;;;;;;;;;;;;15.72;100.00;100166.63;5077142;28;19924;-74
2021/08/28 03:49:10;;;;;;;;;;;;;;;15.80;100.00;100168.09;5077150;28;19925;-74
2021/08/28 03:51:37;;;;;;;;;;;;;;;15.96;100.00;100164.56;5076658;28;19924;-74
2021/08/28 03:54:04;;;;;;;;;;;;;;;15.81;100.00;100163.28;5076739;28;20303;-74
2021/08/28 03:56:31;;;;;;;;;;;;;;;16.00;100.00;100165.28;5077013;28;19924;-74
2021/08/28 03:58:58;;;;;;;;;;;;;;;15.92;100.00;100166.66;5076429;28;19928;-74
2021/08/28 04:01:25;;;;;;;;;;;;;;;16.05;100.00;100161.97;5050354;28;19924;-74
2021/08/28 04:03:53;;;;;;;;;;;;;;;16.06;100.00;100166.38;5058667;28;20375;-74
2021/08/28 04:06:21;;;;;;;;;;;;;;;15.54;100.00;100166.19;5076504;28;19935;-74
2021/08/28 04:08:48;;;;;;;;;;;;;;;15.83;100.00;100172.88;5075768;28;19924;-74
2021/08/28 04:11:16;;;;;;;;;;;;;;;15.72;100.00;100177.13;5076223;28;19924;-74
2021/08/28 04:13:49;;;;;;;;;;;;;;;15.81;100.00;100175.31;5059678;28;20291;-74
2021/08/28 04:16:44;;;;;;;;;;;;;;;15.99;100.00;100170.13;5056233;28;20003;-74
2021/08/28 04:19:11;;;;;;;;;;;;;;;16.03;100.00;100165.22;5072049;28;20023;-74
2021/08/28 04:21:46;;;;;;;;;;;;;;;16.08;100.00;100167.50;5060707;28;19968;-74
2021/08/28 04:24:36;;;;;;;;;;;;;;;16.01;100.00;100167.66;5094235;28;19946;-74
2021/08/28 04:27:22;;;;;;;;;;;;;;;16.03;100.00;100162.41;5076259;28;19931;-74
2021/08/28 04:29:49;;;;;;;;;;;;;;;15.93;100.00;100162.63;5094174;28;19927;-74
2021/08/28 04:32:20;;;;;;;;;;;;;;;15.85;100.00;100161.97;5076170;28;20309;-74
2021/08/28 04:34:47;;;;;;;;;;;;;;;15.61;100.00;100168.88;5075138;28;19925;-74
2021/08/28 04:37:14;;;;;;;;;;;;;;;15.68;100.00;100171.56;5059471;28;20014;-74
2021/08/28 04:39:42;;;;;;;;;;;;;;;15.61;100.00;100166.06;5075834;28;20417;-74
2021/08/28 04:42:09;;;;;;;;;;;;;;;15.37;100.00;100172.94;5075894;28;19972;-74
2021/08/28 04:44:36;;;;;;;;;;;;;;;15.46;100.00;100170.38;5093983;28;19924;-74
2021/08/28 04:47:03;;;;;;;;;;;;;;;15.54;100.00;100165.41;5075830;28;19924;-74
2021/08/28 04:49:30;;;;;;;;;;;;;;;15.65;100.00;100166.78;5058723;28;19928;-73
2021/08/28 04:52:14;;;;;;;;;;;;;;;15.70;100.00;100171.94;5093654;28;19931;-74
2021/08/28 04:54:41;;;;;;;;;;;;;;;15.64;100.00;100170.84;5093837;28;19935;-74
2021/08/28 04:57:09;;;;;;;;;;;;;;;15.65;100.00;100180.88;5059249;28;20034;-74
2021/08/28 04:59:36;;;;;;;;;;;;;;;15.65;100.00;100177.25;5075038;28;20003;-74
2021/08/28 05:02:22;;;;;;;;;;;;;;;15.55;100.00;100179.06;5092908;28;19931;-74
2021/08/28 05:04:55;;;;;;;;;;;;;;;15.56;100.00;100180.66;5058778;28;20014;-74
2021/08/28 05:07:22;;;;;;;;;;;;;;;15.67;100.00;100189.72;5058639;28;19924;-74
2021/08/28 05:09:59;;;;;;;;;;;;;;;15.76;100.00;100184.28;5054866;28;20360;-74
2021/08/28 05:12:26;;;;;;;;;;;;;;;15.75;100.00;100188.31;5071869;28;19931;-74
2021/08/28 05:15:19;;;;;;;;;;;;;;;15.74;100.00;100191.56;5068439;28;19928;-76
2021/08/28 05:17:52;;;;;;;;;;;;;;;15.76;100.00;100187.13;5035398;28;19960;-76
2021/08/28 05:20:23;;;;;;;;;;;;;;;15.68;100.00;100191.28;5045357;28;19924;-76
2021/08/28 05:23:14;;;;;;;;;;;;;;;15.63;100.00;100191.00;5056016;28;19928;-76
2021/08/28 05:25:59;;;;;;;;;;;;;;;15.79;100.00;100194.69;5042244;28;20023;-73
2021/08/28 05:28:29;;;;;;;;;;;;;;;15.55;100.00;100193.16;5021387;28;19928;-73
2021/08/28 05:30:56;;;;;;;;;;;;;;;15.55;100.00;100193.16;5054323;28;19925;-76
2021/08/28 05:33:24;;;;;;;;;;;;;;;15.78;100.00;100190.28;5045947;28;20015;-76
2021/08/28 05:35:52;;;;;;;;;;;;;;;15.73;100.00;100190.78;5055146;28;19924;-76
2021/08/28 05:38:32;;;;;;;;;;;;;;;15.77;100.00;100191.50;5052272;28;19933;-76
2021/08/28 05:41:00;;;;;;;;;;;;;;;15.81;100.00;100197.09;5050096;28;19928;-76
2021/08/28 05:43:27;;;;;;;;;;;;;;;15.83;100.00;100195.41;5024884;28;19931;-76
2021/08/28 05:45:57;;;;;;;;;;;;;;;15.88;100.00;100197.75;5065294;28;19935;-76
2021/08/28 05:48:26;;;;;;;;;;;;;;;16.02;100.00;100189.00;5031691;28;19993;-73
2021/08/28 05:50:53;;;;;;;;;;;;;;;16.01;100.00;100198.69;5049137;28;19929;-73
2021/08/28 05:53:23;;;;;;;;;;;;;;;16.26;100.00;100195.38;5041980;28;20387;-73
2021/08/28 05:55:51;;;;;;;;;;;;;;;16.35;100.00;100197.59;5031427;28;19994;-75
2021/08/28 05:58:18;;;;;;;;;;;;;;;16.40;100.00;100189.44;5054993;28;19925;-78
2021/08/28 06:00:45;;;;;;;;;;;;;;;16.40;100.00;100191.44;5048507;28;19925;-76
2021/08/28 06:03:14;;;;;;;;;;;;;;;16.08;100.00;100192.88;5034163;28;20336;-76
2021/08/28 06:05:44;;;;;;;;;;;;;;;16.03;100.00;100195.44;5019462;28;20394;-77
2021/08/28 06:08:33;;;;;;;;;;;;;;;15.71;100.00;100196.06;5023890;28;20383;-80
2021/08/28 06:11:27;;;;;;;;;;;;;;;15.02;100.00;100201.69;5050763;28;19925;-80
2021/08/28 06:14:15;;;;;;;;;;;;;;;15.07;100.00;100209.63;5075968;28;19928;-80
2021/08/28 06:16:48;;;;;;;;;;;;;;;15.03;100.00;100203.25;5058460;28;19932;-80
2021/08/28 06:19:20;;;;;;;;;;;;;;;15.38;100.00;100202.69;5057739;28;19944;-80
2021/08/28 06:21:49;;;;;;;;;;;;;;;15.65;100.00;100206.22;5049341;28;19995;-78
2021/08/28 06:24:19;;;;;;;;;;;;;;;15.93;100.00;100197.22;5031771;28;19959;-77
2021/08/28 06:27:09;;;;;;;;;;;;;;;16.05;100.00;100202.22;5061319;28;19935;-77
2021/08/28 06:29:36;;;;;;;;;;;;;;;15.41;100.00;100207.47;5057878;28;20007;-77
2021/08/28 06:32:04;;;;;;;;;;;;;;;15.69;100.00;100215.41;5049946;28;19997;-77
2021/08/28 06:34:31;;;;;;;;;;;;;;;15.90;100.00;100211.41;5056365;28;19963;-77
2021/08/28 06:36:58;;;;;;;;;;;;;;;16.05;100.00;100212.72;5058094;28;19970;-77
2021/08/28 06:39:34;;;;;;;;;;;;;;;15.76;100.00;100218.09;5075416;28;20062;-77
2021/08/28 06:42:10;;;;;;;;;;;;;;;15.59;100.00;100224.84;5046543;28;19932;-77
2021/08/28 06:44:56;;;;;;;;;;;;;;;15.73;100.00;100220.97;5069136;28;19944;-77
2021/08/28 06:47:42;;;;;;;;;;;;;;;16.24;100.00;100220.38;5071212;28;19925;-77
2021/08/28 06:50:28;;;;;;;;;;;;;;;16.00;100.00;100230.94;5075102;28;20428;-77
2021/08/28 06:53:14;;;;;;;;;;;;;;;16.51;100.00;100226.69;5045936;28;20323;-77
2021/08/28 06:56:00;;;;;;;;;;;;;;;16.59;100.00;100218.84;5057851;28;19935;-78
2021/08/28 06:58:53;;;;;;;;;;;;;;;16.67;100.00;100215.44;5050984;28;19932;-77
2021/08/28 07:01:46;;;;;;;;;;;;;;;16.77;100.00;100222.06;5065873;28;20073;-78
2021/08/28 07:04:32;;;;;;;;;;;;;;;16.66;100.00;100224.34;5056323;28;20429;-75
2021/08/28 07:07:09;;;;;;;;;;;;;;;15.77;100.00;100233.78;5031409;28;19951;-77
2021/08/28 07:09:39;;;;;;;;;;;;;;;16.24;100.00;100226.81;5056666;28;20287;-77
2021/08/28 07:12:06;;;;;;;;;;;;;;;16.75;100.00;100233.78;5072879;28;19924;-77
2021/08/28 07:14:34;;;;;;;;;;;;;;;17.10;100.00;100232.97;5037968;28;19925;-77
2021/08/28 07:17:01;;;;;;;;;;;;;;;17.29;100.00;100234.16;5075451;28;19958;-77
2021/08/28 07:19:28;;;;;;;;;;;;;;;17.18;100.00;100227.94;5040213;28;20019;-77
2021/08/28 07:21:55;;;;;;;;;;;;;;;17.50;100.00;100230.81;5041156;28;19928;-77
2021/08/28 07:24:24;;;;;;;;;;;;;;;17.46;100.00;100224.47;5074967;28;20450;-77
2021/08/28 07:26:51;;;;;;;;;;;;;;;18.14;100.00;100227.88;5076607;28;19924;-77
2021/08/28 07:29:37;;;;;;;;;;;;;;;18.40;100.00;100220.28;5095027;28;19977;-75
2021/08/28 07:32:04;;;;;;;;;;;;;;;18.62;100.00;100219.19;5072872;28;19928;-75
2021/08/28 07:34:36;;;;;;;;;;;;;;;18.69;100.00;100223.84;5046017;28;20011;-75
2021/08/28 07:37:28;;;;;;;;;;;;;;;19.26;100.00;100215.13;5088869;28;19924;-77
2021/08/28 07:39:55;;;;;;;;;;;;;;;20.00;100.00;100212.59;5094434;28;19924;-76
2021/08/28 07:42:22;;;;;;;;;;;;;;;19.86;100.00;100210.28;5070897;28;20390;-76
2021/08/28 07:44:49;;;;;;;;;;;;;;;19.56;100.00;100209.69;5076880;28;19935;-75
2021/08/28 07:47:17;;;;;;;;;;;;;;;19.14;100.00;100210.28;5069924;28;19928;-75
2021/08/28 07:49:44;;;;;;;;;;;;;;;18.63;100.00;100220.00;5061921;28;19932;-76
2021/08/28 07:52:11;;;;;;;;;;;;;;;18.18;100.00;100220.06;5076514;28;19924;-79
2021/08/28 07:54:39;;;;;;;;;;;;;;;18.02;100.00;100225.78;5052736;28;19954;-78
2021/08/28 07:57:06;;;;;;;;;;;;;;;18.73;100.00;100231.00;5055968;28;19935;-78
2021/08/28 07:59:33;;;;;;;;;;;;;;;18.53;100.00;100215.44;5069930;28;19928;-78
2021/08/28 08:02:01;;;;;;;;;;;;;;;19.02;100.00;100213.91;5072488;28;19932;-78
2021/08/28 08:04:29;;;;;;;;;;;;;;;19.00;100.00;100211.53;5059460;28;19924;-78
2021/08/28 08:07:14;;;;;;;;;;;;;;;19.03;100.00;100210.63;5093416;28;19935;-78
2021/08/28 08:10:17;;;;;;;;;;;;;;;19.44;100.00;100204.81;4971260;28;19941;-78
2021/08/28 08:13:02;;;;;;;;;;;;;;;19.60;100.00;100203.88;4954199;28;20074;-78
2021/08/28 08:15:56;;;;;;;;;;;;;;;19.73;100.00;100196.91;4952767;28;19926;-77
2021/08/28 08:18:56;;;;;;;;;;;;;;;20.34;100.00;100209.75;4915355;29;19938;-78
2021/08/28 08:21:41;;;;;;;;;;;;;;;20.59;100.00;100195.38;4908211;29;19965;-79
2021/08/28 08:24:30;;;;;;;;;;;;;;;20.16;100.00;100201.09;4904038;29;19938;-80
2021/08/28 08:27:13;;;;;;;;;;;;;;;19.52;100.00;100208.22;4926140;29;19927;-80
2021/08/28 08:30:01;;;;;;;;;;;;;;;18.61;100.00;100214.78;4879510;29;19931;-80
2021/08/28 08:32:39;;;;;;;;;;;;;;;18.84;100.00;100220.09;4893531;29;19926;-80
2021/08/28 08:35:07;;;;;;;;;;;;;;;19.05;100.00;100213.78;4900775;29;19927;-79
2021/08/28 08:37:36;;;;;;;;;;;;;;;19.16;100.00;100219.91;4888293;29;20393;-80
2021/08/28 08:40:05;;;;;;;;;;;;;;;18.89;100.00;100222.38;4932048;29;19927;-80
2021/08/28 08:42:39;;;;;;;;;;;;;;;19.71;100.00;100221.31;4927998;29;19927;-80
2021/08/28 08:45:09;;;;;;;;;;;;;;;19.93;100.00;100221.34;4974332;28;19947;-80
2021/08/28 08:47:36;;;;;;;;;;;;;;;19.14;100.00;100213.09;4990996;28;19933;-80
2021/08/28 08:50:04;;;;;;;;;;;;;;;19.20;100.00;100214.91;4974946;28;19969;-80
2021/08/28 08:52:47;;;;;;;;;;;;;;;19.54;100.00;100223.50;4959089;28;19926;-80
2021/08/28 08:55:28;;;;;;;;;;;;;;;20.31;100.00;100213.50;5023028;28;20368;-80
2021/08/28 08:58:10;;;;;;;;;;;;;;;20.55;100.00;100211.78;5024127;28;20013;-80
2021/08/28 09:00:38;;;;;;;;;;;;;;;21.12;100.00;100213.97;5058399;28;20023;-78
2021/08/28 09:03:23;;;;;;;;;;;;;;;21.91;100.00;100193.94;5056229;28;19924;-77
2021/08/28 09:05:57;;;;;;;;;;;;;;;22.47;100.00;100191.38;5034902;28;19928;-80
2021/08/28 09:08:27;;;;;;;;;;;;;;;22.33;100.00;100191.22;5018935;28;20006;-80
2021/08/28 09:10:54;;;;;;;;;;;;;;;23.41;100.00;100199.47;5052288;28;19932;-80
2021/08/28 09:13:22;;;;;;;;;;;;;;;22.03;100.00;100195.84;5052236;28;19925;-80
2021/08/28 09:15:51;;;;;;;;;;;;;;;21.72;100.00;100198.00;5052474;28;19935;-80
2021/08/28 09:18:29;;;;;;;;;;;;;;;22.90;100.00;100196.66;5034655;28;19925;-77
2021/08/28 09:20:59;;;;;;;;;;;;;;;22.77;100.00;100190.38;5034510;28;19959;-77
2021/08/28 09:23:37;;;;;;;;;;;;;;;22.92;100.00;100194.13;5051869;28;19924;-78
2021/08/28 09:26:23;;;;;;;;;;;;;;;22.51;100.00;100194.88;5052362;28;20024;-77
2021/08/28 09:28:55;;;;;;;;;;;;;;;21.98;100.00;100196.47;5025609;28;19948;-78
2021/08/28 09:31:54;;;;;;;;;;;;;;;22.18;100.00;100202.47;5072541;28;20153;-78
2021/08/28 09:34:25;;;;;;;;;;;;;;;22.39;100.00;100195.00;5019225;28;19925;-78
2021/08/28 09:37:01;;;;;;;;;;;;;;;23.13;100.00;100192.28;5052037;28;20291;-80
2021/08/28 09:39:39;;;;;;;;;;;;;;;22.67;100.00;100197.34;5036470;28;19925;-77
2021/08/28 09:42:08;;;;;;;;;;;;;;;21.60;100.00;100195.31;5040882;28;20291;-77
2021/08/28 09:44:37;;;;;;;;;;;;;;;22.14;100.00;100199.03;5058056;28;20300;-80
2021/08/28 09:47:08;;;;;;;;;;;;;;;21.13;100.00;100198.50;5037540;28;20442;-77
2021/08/28 09:49:38;;;;;;;;;;;;;;;20.44;100.00;100200.03;5076637;28;19954;-80
2021/08/28 09:52:08;;;;;;;;;;;;;;;20.48;100.00;100200.66;5076230;28;20296;-80
2021/08/28 09:54:39;;;;;;;;;;;;;;;20.84;100.00;100195.22;5076100;28;19986;-80
2021/08/28 09:57:06;;;;;;;;;;;;;;;21.00;100.00;100187.25;5058132;28;20394;-78
2021/08/28 09:59:34;;;;;;;;;;;;;;;21.30;100.00;100194.13;5058320;28;19947;-78
2021/08/28 10:02:02;;;;;;;;;;;;;;;21.15;100.00;100191.09;5058041;28;19928;-77
2021/08/28 10:04:30;;;;;;;;;;;;;;;21.05;100.00;100200.84;5064723;28;19976;-79
2021/08/28 10:06:58;;;;;;;;;;;;;;;21.42;100.00;100201.75;5042387;28;19930;-77
2021/08/28 10:09:27;;;;;;;;;;;;;;;20.83;100.00;100194.41;5052938;28;20024;-77
2021/08/28 10:11:56;;;;;;;;;;;;;;;21.26;100.00;100199.19;5087521;28;20019;-76
2021/08/28 10:14:28;;;;;;;;;;;;;;;21.35;100.00;100196.38;5093349;28;19970;-75
2021/08/28 10:16:57;;;;;;;;;;;;;;;20.61;100.00;100195.72;5079041;28;19924;-79
2021/08/28 10:19:25;;;;;;;;;;;;;;;20.77;100.00;100201.16;5097287;28;19924;-80
2021/08/28 10:21:53;;;;;;;;;;;;;;;20.98;100.00;100211.69;5091120;28;19931;-80
2021/08/28 10:24:21;;;;;;;;;;;;;;;20.27;100.00;100218.50;5064902;28;19931;-80
2021/08/28 10:26:50;;;;;;;;;;;;;;;20.64;100.00;100214.66;5057290;28;19924;-78
2021/08/28 10:29:17;;;;;;;;;;;;;;;20.79;100.00;100215.69;5078542;28;19924;-78
2021/08/28 10:31:47;;;;;;;;;;;;;;;20.92;100.00;100207.84;5074163;28;19924;-76
2021/08/28 10:34:17;;;;;;;;;;;;;;;20.82;100.00;100206.22;5093726;28;19923;-75
2021/08/28 10:36:44;;;;;;;;;;;;;;;20.69;100.00;100194.19;5074505;28;19925;-77
2021/08/28 10:39:11;;;;;;;;;;;;;;;20.70;100.00;100201.44;5068984;28;19932;-77
2021/08/28 10:41:40;;;;;;;;;;;;;;;19.90;100.00;100200.38;5093313;28;19924;-75
2021/08/28 10:44:07;;;;;;;;;;;;;;;20.24;100.00;100206.03;5042334;28;19984;-77
2021/08/28 10:46:34;;;;;;;;;;;;;;;20.29;100.00;100201.81;5044197;28;19924;-77
2021/08/28 10:49:12;;;;;;;;;;;;;;;21.17;100.00;100190.63;5045241;28;20295;-77
2021/08/28 10:51:40;;;;;;;;;;;;;;;21.01;100.00;100185.19;5038963;28;19925;-74
2021/08/28 10:54:13;;;;;;;;;;;;;;;21.41;100.00;100183.13;5056931;28;19956;-77
2021/08/28 10:56:40;;;;;;;;;;;;;;;21.47;100.00;100186.91;5074900;28;19986;-77
2021/08/28 10:59:18;;;;;;;;;;;;;;;21.27;100.00;100184.50;5056812;28;20031;-77
2021/08/28 11:01:58;;;;;;;;;;;;;;;21.53;100.00;100190.72;5048580;28;19924;-77
2021/08/28 11:04:35;;;;;;;;;;;;;;;21.47;100.00;100180.44;5078025;28;19932;-77
2021/08/28 11:07:21;;;;;;;;;;;;;;;21.32;100.00;100183.09;5074554;28;19924;-77
2021/08/28 11:10:03;;;;;;;;;;;;;;;21.49;100.00;100184.41;5074517;28;19925;-77
2021/08/28 11:12:46;;;;;;;;;;;;;;;21.72;100.00;100175.25;5055042;28;19925;-77
2021/08/28 11:15:25;;;;;;;;;;;;;;;21.52;100.00;100177.78;5032914;28;19932;-77
2021/08/28 11:17:52;;;;;;;;;;;;;;;22.01;100.00;100175.59;5036259;28;19925;-77
2021/08/28 11:20:39;;;;;;;;;;;;;;;22.24;100.00;100172.13;5036443;28;20296;-77
2021/08/28 11:23:10;;;;;;;;;;;;;;;22.51;100.00;100174.94;5036287;28;19925;-77
2021/08/28 11:25:39;;;;;;;;;;;;;;;22.06;100.00;100172.13;5020463;28;20011;-77
2021/08/28 11:28:06;;;;;;;;;;;;;;;22.28;100.00;100183.34;5036546;28;20388;-78
2021/08/28 11:30:42;;;;;;;;;;;;;;;22.26;100.00;100163.09;5027473;28;20441;-77
2021/08/28 11:33:15;;;;;;;;;;;;;;;22.00;100.00;100173.25;5041621;28;20292;-77
2021/08/28 11:35:46;;;;;;;;;;;;;;;22.29;100.00;100168.63;5010930;28;19924;-77
2021/08/28 11:38:13;;;;;;;;;;;;;;;22.51;100.00;100163.53;5059618;28;19924;-77
2021/08/28 11:40:40;;;;;;;;;;;;;;;22.46;100.00;100166.22;5054069;28;20047;-77
2021/08/28 11:43:11;;;;;;;;;;;;;;;22.47;100.00;100170.66;5036320;28;19924;-77
2021/08/28 11:45:39;;;;;;;;;;;;;;;22.57;100.00;100164.47;5020819;28;19925;-77
2021/08/28 11:48:07;;;;;;;;;;;;;;;22.84;100.00;100163.59;5065724;28;20183;-74
2021/08/28 11:50:34;;;;;;;;;;;;;;;22.91;100.00;100164.06;5035883;28;19998;-74
2021/08/28 11:53:02;;;;;;;;;;;;;;;23.03;100.00;100165.91;5036245;28;19929;-74
2021/08/28 11:55:33;;;;;;;;;;;;;;;23.17;100.00;100159.47;5028623;28;20388;-74
2021/08/28 11:58:04;;;;;;;;;;;;;;;23.17;100.00;100153.75;5055188;28;19925;-74
2021/08/28 12:00:32;;;;;;;;;;;;;;;21.92;100.00;100161.38;5061429;28;19929;-74
2021/08/28 12:02:59;;;;;;;;;;;;;;;21.82;100.00;100165.50;5035486;28;20036;-77
2021/08/28 12:05:29;;;;;;;;;;;;;;;22.97;100.00;100162.13;5053283;28;19960;-74
2021/08/28 12:07:56;;;;;;;;;;;;;;;23.20;100.00;100156.94;5035450;28;20445;-74
2021/08/28 12:10:23;;;;;;;;;;;;;;;22.86;100.00;100156.16;5035384;28;19928;-74
2021/08/28 12:13:01;;;;;;;;;;;;;;;22.75;100.00;100157.94;5053667;28;20426;-74
2021/08/28 12:15:28;;;;;;;;;;;;;;;22.29;100.00;100157.25;5053362;28;19955;-74
2021/08/28 12:17:57;;;;;;;;;;;;;;;22.24;100.00;100160.72;5035035;28;20037;-77
2021/08/28 12:20:32;;;;;;;;;;;;;;;22.54;100.00;100159.72;5053301;28;19929;-74
2021/08/28 12:23:00;;;;;;;;;;;;;;;22.25;100.00;100150.91;5016465;28;20066;-77
2021/08/28 12:25:28;;;;;;;;;;;;;;;22.79;100.00;100145.09;5053007;28;19956;-74
2021/08/28 12:27:55;;;;;;;;;;;;;;;22.67;100.00;100153.84;5035263;28;19932;-74
2021/08/28 12:30:23;;;;;;;;;;;;;;;23.06;100.00;100164.94;5053185;28;20009;-74
2021/08/28 12:32:50;;;;;;;;;;;;;;;22.73;100.00;100164.09;5035002;28;19925;-74
2021/08/28 12:35:17;;;;;;;;;;;;;;;22.59;100.00;100156.25;5016912;28;20285;-77
2021/08/28 12:37:44;;;;;;;;;;;;;;;23.22;100.00;100154.41;5052914;28;19933;-77
2021/08/28 12:40:15;;;;;;;;;;;;;;;23.13;100.00;100145.91;5053256;28;19932;-74
2021/08/28 12:42:43;;;;;;;;;;;;;;;22.68;100.00;100155.41;5035538;28;19924;-74
2021/08/28 12:45:11;;;;;;;;;;;;;;;22.10;100.00;100160.59;5052712;28;19960;-74
2021/08/28 12:47:43;;;;;;;;;;;;;;;22.86;100.00;100158.19;5048702;28;19925;-74
2021/08/28 12:50:11;;;;;;;;;;;;;;;22.92;100.00;100153.41;5035130;28;19925;-74
2021/08/28 12:52:39;;;;;;;;;;;;;;;23.11;100.00;100146.38;5034466;28;19979;-74
2021/08/28 12:55:07;;;;;;;;;;;;;;;23.56;100.00;100151.03;5034889;28;19931;-74